sensor_id;sensor_type;location;lat;lon;timestamp;pressure;altitude;pressure_sealevel;temperature;humidity
7376;BME280;3728;42.266;24.944;2023-02-22T00:01:40;99346.53;;;11.12;43.71
7376;BME280;3728;42.266;24.944;2023-02-22T00:04:16;99346.72;;;11.41;42.61
7376;BME280;3728;42.266;24.944;2023-02-22T00:06:47;99364.16;;;11.54;42.42
7376;BME280;3728;42.266;24.944;2023-02-22T00:09:15;99349.78;;;11.60;42.68
7376;BME280;3728;42.266;24.944;2023-02-22T00:11:47;99359.38;;;11.56;42.18
7376;BME280;3728;42.266;24.944;2023-02-22T00:14:15;99353.03;;;11.48;42.51
7376;BME280;3728;42.266;24.944;2023-02-22T00:16:46;99350.09;;;11.84;41.83
7376;BME280;3728;42.266;24.944;2023-02-22T00:19:13;99348.66;;;12.12;41.01
7376;BME280;3728;42.266;24.944;2023-02-22T00:21:41;99350.75;;;12.27;41.04
7376;BME280;3728;42.266;24.944;2023-02-22T00:24:10;99350.78;;;12.19;40.72
7376;BME280;3728;42.266;24.944;2023-02-22T00:26:54;99345.16;;;12.38;40.47
7376;BME280;3728;42.266;24.944;2023-02-22T00:29:23;99353.50;;;12.40;40.01
7376;BME280;3728;42.266;24.944;2023-02-22T00:31:51;99350.38;;;12.46;40.08
7376;BME280;3728;42.266;24.944;2023-02-22T00:34:20;99348.00;;;12.15;40.55
7376;BME280;3728;42.266;24.944;2023-02-22T00:36:50;99354.78;;;12.25;40.52
7376;BME280;3728;42.266;24.944;2023-02-22T00:39:17;99354.66;;;12.59;40.10
7376;BME280;3728;42.266;24.944;2023-02-22T00:41:45;99353.34;;;12.74;39.30
7376;BME280;3728;42.266;24.944;2023-02-22T00:44:13;99357.19;;;13.06;38.85
7376;BME280;3728;42.266;24.944;2023-02-22T00:46:41;99359.41;;;12.66;39.85
7376;BME280;3728;42.266;24.944;2023-02-22T00:49:08;99352.66;;;12.56;39.78
7376;BME280;3728;42.266;24.944;2023-02-22T00:51:36;99355.94;;;12.45;40.80
7376;BME280;3728;42.266;24.944;2023-02-22T00:54:03;99361.16;;;12.53;40.30
7376;BME280;3728;42.266;24.944;2023-02-22T00:56:32;99351.59;;;12.49;40.38
7376;BME280;3728;42.266;24.944;2023-02-22T00:59:00;99349.34;;;12.30;40.99
7376;BME280;3728;42.266;24.944;2023-02-22T01:01:29;99351.72;;;12.14;41.56
7376;BME280;3728;42.266;24.944;2023-02-22T01:03:57;99350.13;;;12.30;41.13
7376;BME280;3728;42.266;24.944;2023-02-22T01:06:25;99357.69;;;12.32;40.95
7376;BME280;3728;42.266;24.944;2023-02-22T01:08:52;99356.88;;;11.94;42.49
7376;BME280;3728;42.266;24.944;2023-02-22T01:11:20;99355.03;;;11.68;42.89
7376;BME280;3728;42.266;24.944;2023-02-22T01:13:47;99351.81;;;11.63;43.28
7376;BME280;3728;42.266;24.944;2023-02-22T01:16:15;99346.09;;;11.70;43.33
7376;BME280;3728;42.266;24.944;2023-02-22T01:18:42;99347.31;;;11.63;42.96
7376;BME280;3728;42.266;24.944;2023-02-22T01:21:10;99351.03;;;11.45;43.92
7376;BME280;3728;42.266;24.944;2023-02-22T01:23:40;99359.50;;;11.42;44.01
7376;BME280;3728;42.266;24.944;2023-02-22T01:26:09;99357.50;;;11.39;44.03
7376;BME280;3728;42.266;24.944;2023-02-22T01:28:37;99348.09;;;11.13;44.76
7376;BME280;3728;42.266;24.944;2023-02-22T01:31:05;99348.41;;;11.20;44.78
7376;BME280;3728;42.266;24.944;2023-02-22T01:33:32;99352.72;;;11.24;44.47
7376;BME280;3728;42.266;24.944;2023-02-22T01:36:00;99347.16;;;11.60;43.59
7376;BME280;3728;42.266;24.944;2023-02-22T01:38:27;99346.38;;;11.17;44.35
7376;BME280;3728;42.266;24.944;2023-02-22T01:40:55;99352.72;;;11.24;44.04
7376;BME280;3728;42.266;24.944;2023-02-22T01:43:30;99343.16;;;11.37;44.19
7376;BME280;3728;42.266;24.944;2023-02-22T01:49:02;99341.00;;;11.22;44.49
7376;BME280;3728;42.266;24.944;2023-02-22T01:51:36;99344.06;;;11.49;43.76
7376;BME280;3728;42.266;24.944;2023-02-22T01:54:13;99341.00;;;11.82;43.34
7376;BME280;3728;42.266;24.944;2023-02-22T01:57:05;99350.25;;;11.88;42.94
7376;BME280;3728;42.266;24.944;2023-02-22T01:59:44;99348.38;;;11.97;43.22
7376;BME280;3728;42.266;24.944;2023-02-22T02:02:15;99337.75;;;11.76;44.01
7376;BME280;3728;42.266;24.944;2023-02-22T02:04:42;99335.88;;;11.94;43.19
7376;BME280;3728;42.266;24.944;2023-02-22T02:07:12;99344.69;;;11.81;43.36
7376;BME280;3728;42.266;24.944;2023-02-22T02:09:50;99343.63;;;11.56;44.20
7376;BME280;3728;42.266;24.944;2023-02-22T02:12:19;99346.41;;;11.34;44.97
7376;BME280;3728;42.266;24.944;2023-02-22T02:14:49;99345.94;;;11.40;45.02
7376;BME280;3728;42.266;24.944;2023-02-22T02:17:20;99344.56;;;11.34;45.17
7376;BME280;3728;42.266;24.944;2023-02-22T02:20:07;99347.47;;;11.16;45.57
7376;BME280;3728;42.266;24.944;2023-02-22T02:22:46;99351.59;;;10.91;46.33
7376;BME280;3728;42.266;24.944;2023-02-22T02:32:02;99361.31;;;10.99;46.66
7376;BME280;3728;42.266;24.944;2023-02-22T02:35:11;99366.06;;;10.80;46.90
7376;BME280;3728;42.266;24.944;2023-02-22T02:38:03;99360.75;;;10.63;47.12
7376;BME280;3728;42.266;24.944;2023-02-22T02:41:06;99365.78;;;10.51;47.35
7376;BME280;3728;42.266;24.944;2023-02-22T02:43:50;99371.56;;;10.30;47.84
7376;BME280;3728;42.266;24.944;2023-02-22T02:48:58;99373.09;;;10.01;48.82
7376;BME280;3728;42.266;24.944;2023-02-22T02:51:36;99381.56;;;10.06;48.14
7376;BME280;3728;42.266;24.944;2023-02-22T02:54:07;99376.63;;;10.05;48.30
7376;BME280;3728;42.266;24.944;2023-02-22T02:56:36;99384.50;;;9.83;48.83
7376;BME280;3728;42.266;24.944;2023-02-22T02:59:23;99381.25;;;9.77;49.41
7376;BME280;3728;42.266;24.944;2023-02-22T03:13:49;99373.91;;;9.88;48.39
7376;BME280;3728;42.266;24.944;2023-02-22T03:16:48;99367.91;;;9.87;48.24
7376;BME280;3728;42.266;24.944;2023-02-22T03:19:35;99369.25;;;10.07;48.41
7376;BME280;3728;42.266;24.944;2023-02-22T03:22:21;99361.88;;;10.31;47.81
7376;BME280;3728;42.266;24.944;2023-02-22T03:25:16;99368.25;;;10.16;48.05
7376;BME280;3728;42.266;24.944;2023-02-22T03:27:49;99380.88;;;10.14;48.51
7376;BME280;3728;42.266;24.944;2023-02-22T03:30:29;99371.88;;;10.07;48.44
7376;BME280;3728;42.266;24.944;2023-02-22T03:33:13;99374.72;;;9.97;49.27
7376;BME280;3728;42.266;24.944;2023-02-22T03:35:52;99366.94;;;10.05;49.58
7376;BME280;3728;42.266;24.944;2023-02-22T03:38:26;99383.97;;;10.16;49.24
7376;BME280;3728;42.266;24.944;2023-02-22T03:41:00;99386.94;;;10.23;49.57
7376;BME280;3728;42.266;24.944;2023-02-22T03:43:46;99380.88;;;10.14;48.97
7376;BME280;3728;42.266;24.944;2023-02-22T03:46:17;99386.91;;;10.01;49.79
7376;BME280;3728;42.266;24.944;2023-02-22T03:51:32;99402.44;;;9.98;49.57
7376;BME280;3728;42.266;24.944;2023-02-22T03:54:01;99392.72;;;10.12;49.81
7376;BME280;3728;42.266;24.944;2023-02-22T03:56:39;99396.78;;;10.04;49.35
7376;BME280;3728;42.266;24.944;2023-02-22T03:59:13;99391.56;;;9.82;49.54
7376;BME280;3728;42.266;24.944;2023-02-22T04:01:42;99382.72;;;9.70;49.99
7376;BME280;3728;42.266;24.944;2023-02-22T04:04:10;99388.22;;;9.68;50.84
7376;BME280;3728;42.266;24.944;2023-02-22T04:06:37;99388.38;;;9.63;50.81
7376;BME280;3728;42.266;24.944;2023-02-22T04:09:05;99407.41;;;9.63;50.79
7376;BME280;3728;42.266;24.944;2023-02-22T04:11:34;99398.88;;;9.72;50.75
7376;BME280;3728;42.266;24.944;2023-02-22T04:14:02;99395.41;;;9.85;50.63
7376;BME280;3728;42.266;24.944;2023-02-22T04:16:29;99401.75;;;9.84;49.86
7376;BME280;3728;42.266;24.944;2023-02-22T04:18:58;99399.81;;;9.76;50.38
7376;BME280;3728;42.266;24.944;2023-02-22T04:21:25;99403.28;;;9.85;50.21
7376;BME280;3728;42.266;24.944;2023-02-22T04:23:53;99405.97;;;9.93;50.69
7376;BME280;3728;42.266;24.944;2023-02-22T04:26:21;99402.25;;;9.94;50.40
7376;BME280;3728;42.266;24.944;2023-02-22T04:28:53;99411.56;;;10.00;50.02
7376;BME280;3728;42.266;24.944;2023-02-22T04:31:23;99402.25;;;9.94;50.21
7376;BME280;3728;42.266;24.944;2023-02-22T04:33:52;99396.75;;;9.96;50.47
7376;BME280;3728;42.266;24.944;2023-02-22T04:36:24;99402.69;;;10.10;50.55
7376;BME280;3728;42.266;24.944;2023-02-22T04:38:53;99402.16;;;10.21;50.56
7376;BME280;3728;42.266;24.944;2023-02-22T04:41:20;99398.19;;;10.55;49.05
7376;BME280;3728;42.266;24.944;2023-02-22T04:43:51;99404.78;;;10.52;47.98
7376;BME280;3728;42.266;24.944;2023-02-22T04:46:23;99408.13;;;10.44;49.58
7376;BME280;3728;42.266;24.944;2023-02-22T04:48:52;99406.28;;;10.45;49.69
7376;BME280;3728;42.266;24.944;2023-02-22T04:51:26;99407.84;;;10.46;49.41
7376;BME280;3728;42.266;24.944;2023-02-22T04:54:14;99408.00;;;10.49;49.95
7376;BME280;3728;42.266;24.944;2023-02-22T04:56:45;99401.16;;;10.40;49.69
7376;BME280;3728;42.266;24.944;2023-02-22T04:59:13;99397.78;;;10.39;50.20
7376;BME280;3728;42.266;24.944;2023-02-22T05:01:43;99403.53;;;10.50;49.29
7376;BME280;3728;42.266;24.944;2023-02-22T05:04:11;99414.78;;;10.50;50.04
7376;BME280;3728;42.266;24.944;2023-02-22T05:06:40;99418.72;;;10.70;49.29
7376;BME280;3728;42.266;24.944;2023-02-22T05:09:08;99412.44;;;10.79;47.98
7376;BME280;3728;42.266;24.944;2023-02-22T05:11:35;99409.81;;;10.79;48.95
7376;BME280;3728;42.266;24.944;2023-02-22T05:14:06;99413.22;;;10.88;48.03
7376;BME280;3728;42.266;24.944;2023-02-22T05:16:33;99402.88;;;10.83;48.60
7376;BME280;3728;42.266;24.944;2023-02-22T05:19:01;99413.22;;;10.80;49.06
7376;BME280;3728;42.266;24.944;2023-02-22T05:21:29;99408.41;;;10.73;49.20
7376;BME280;3728;42.266;24.944;2023-02-22T05:23:56;99410.72;;;10.75;49.33
7376;BME280;3728;42.266;24.944;2023-02-22T05:26:24;99409.06;;;10.87;48.23
7376;BME280;3728;42.266;24.944;2023-02-22T05:28:51;99417.56;;;10.93;48.54
7376;BME280;3728;42.266;24.944;2023-02-22T05:31:20;99422.38;;;11.08;48.28
7376;BME280;3728;42.266;24.944;2023-02-22T05:33:48;99429.19;;;11.09;48.48
7376;BME280;3728;42.266;24.944;2023-02-22T05:36:15;99425.47;;;11.10;48.02
7376;BME280;3728;42.266;24.944;2023-02-22T05:38:43;99426.88;;;11.16;48.27
7376;BME280;3728;42.266;24.944;2023-02-22T05:41:12;99433.97;;;11.24;46.76
7376;BME280;3728;42.266;24.944;2023-02-22T05:43:40;99434.44;;;11.26;46.42
7376;BME280;3728;42.266;24.944;2023-02-22T05:46:08;99437.38;;;11.16;47.18
7376;BME280;3728;42.266;24.944;2023-02-22T05:48:35;99449.66;;;11.07;48.48
7376;BME280;3728;42.266;24.944;2023-02-22T05:51:03;99451.69;;;11.10;48.73
7376;BME280;3728;42.266;24.944;2023-02-22T05:53:31;99453.41;;;11.23;48.86
7376;BME280;3728;42.266;24.944;2023-02-22T05:55:58;99456.19;;;11.27;49.01
7376;BME280;3728;42.266;24.944;2023-02-22T05:58:26;99464.69;;;11.32;48.35
7376;BME280;3728;42.266;24.944;2023-02-22T06:00:53;99455.78;;;11.42;47.85
7376;BME280;3728;42.266;24.944;2023-02-22T06:03:21;99467.19;;;11.54;46.59
7376;BME280;3728;42.266;24.944;2023-02-22T06:05:49;99461.63;;;11.39;46.55
7376;BME280;3728;42.266;24.944;2023-02-22T06:08:16;99464.88;;;11.44;48.71
7376;BME280;3728;42.266;24.944;2023-02-22T06:10:44;99467.03;;;11.51;46.85
7376;BME280;3728;42.266;24.944;2023-02-22T06:13:11;99469.63;;;11.42;46.88
7376;BME280;3728;42.266;24.944;2023-02-22T06:15:38;99473.34;;;11.50;47.56
7376;BME280;3728;42.266;24.944;2023-02-22T06:18:06;99474.75;;;11.64;47.59
7376;BME280;3728;42.266;24.944;2023-02-22T06:20:33;99474.03;;;11.73;46.39
7376;BME280;3728;42.266;24.944;2023-02-22T06:23:01;99470.19;;;11.70;46.00
7376;BME280;3728;42.266;24.944;2023-02-22T06:25:29;99467.56;;;11.79;45.89
7376;BME280;3728;42.266;24.944;2023-02-22T06:27:58;99467.84;;;11.86;45.80
7376;BME280;3728;42.266;24.944;2023-02-22T06:30:27;99470.63;;;12.06;45.23
7376;BME280;3728;42.266;24.944;2023-02-22T06:32:56;99477.91;;;11.75;46.30
7376;BME280;3728;42.266;24.944;2023-02-22T06:35:23;99479.84;;;11.52;46.41
7376;BME280;3728;42.266;24.944;2023-02-22T06:37:51;99478.91;;;11.48;46.52
7376;BME280;3728;42.266;24.944;2023-02-22T06:40:18;99484.28;;;11.43;46.91
7376;BME280;3728;42.266;24.944;2023-02-22T06:42:47;99475.66;;;11.34;46.98
7376;BME280;3728;42.266;24.944;2023-02-22T06:45:16;99479.84;;;11.52;46.51
7376;BME280;3728;42.266;24.944;2023-02-22T06:47:45;99481.75;;;11.69;46.15
7376;BME280;3728;42.266;24.944;2023-02-22T06:50:25;99477.84;;;11.66;46.07
7376;BME280;3728;42.266;24.944;2023-02-22T06:52:54;99476.16;;;11.62;47.31
7376;BME280;3728;42.266;24.944;2023-02-22T06:55:27;99485.91;;;11.70;48.07
7376;BME280;3728;42.266;24.944;2023-02-22T06:57:57;99482.06;;;11.93;47.57
7376;BME280;3728;42.266;24.944;2023-02-22T07:00:30;99485.97;;;12.76;52.35
7376;BME280;3728;42.266;24.944;2023-02-22T07:02:58;99488.00;;;12.62;51.87
7376;BME280;3728;42.266;24.944;2023-02-22T07:05:27;99478.75;;;12.56;51.55
7376;BME280;3728;42.266;24.944;2023-02-22T07:08:01;99481.31;;;12.65;51.02
7376;BME280;3728;42.266;24.944;2023-02-22T07:10:32;99490.44;;;12.76;49.21
7376;BME280;3728;42.266;24.944;2023-02-22T07:13:01;99477.19;;;13.01;47.36
7376;BME280;3728;42.266;24.944;2023-02-22T07:15:32;99474.44;;;13.56;45.41
7376;BME280;3728;42.266;24.944;2023-02-22T07:18:00;99478.56;;;13.87;44.60
7376;BME280;3728;42.266;24.944;2023-02-22T07:20:29;99478.41;;;14.04;44.99
7376;BME280;3728;42.266;24.944;2023-02-22T07:22:58;99480.69;;;14.26;44.72
7376;BME280;3728;42.266;24.944;2023-02-22T07:25:26;99471.63;;;14.80;44.34
7376;BME280;3728;42.266;24.944;2023-02-22T07:27:54;99479.63;;;14.96;44.82
7376;BME280;3728;42.266;24.944;2023-02-22T07:30:32;99472.84;;;14.95;44.95
7376;BME280;3728;42.266;24.944;2023-02-22T07:33:02;99465.75;;;15.59;42.33
7376;BME280;3728;42.266;24.944;2023-02-22T07:35:34;99470.25;;;16.11;40.05
7376;BME280;3728;42.266;24.944;2023-02-22T07:38:04;99478.09;;;16.23;39.50
7376;BME280;3728;42.266;24.944;2023-02-22T07:40:34;99478.84;;;16.51;38.51
7376;BME280;3728;42.266;24.944;2023-02-22T07:43:26;99475.63;;;16.73;38.17
7376;BME280;3728;42.266;24.944;2023-02-22T07:45:59;99477.25;;;16.78;37.90
7376;BME280;3728;42.266;24.944;2023-02-22T07:48:30;99475.13;;;16.83;37.62
7376;BME280;3728;42.266;24.944;2023-02-22T07:50:58;99469.56;;;16.73;38.09
7376;BME280;3728;42.266;24.944;2023-02-22T07:53:28;99470.84;;;16.94;37.15
7376;BME280;3728;42.266;24.944;2023-02-22T07:55:57;99472.91;;;17.17;36.85
7376;BME280;3728;42.266;24.944;2023-02-22T07:58:28;99459.09;;;17.42;36.43
7376;BME280;3728;42.266;24.944;2023-02-22T08:00:56;99461.59;;;17.20;37.03
7376;BME280;3728;42.266;24.944;2023-02-22T08:03:30;99458.38;;;17.26;37.25
7376;BME280;3728;42.266;24.944;2023-02-22T08:06:03;99460.72;;;17.31;37.09
7376;BME280;3728;42.266;24.944;2023-02-22T08:08:35;99459.22;;;17.15;37.53
7376;BME280;3728;42.266;24.944;2023-02-22T08:11:03;99461.75;;;17.27;37.44
7376;BME280;3728;42.266;24.944;2023-02-22T08:13:31;99459.44;;;17.75;36.45
7376;BME280;3728;42.266;24.944;2023-02-22T08:15:59;99459.16;;;17.61;37.12
7376;BME280;3728;42.266;24.944;2023-02-22T08:18:26;99456.44;;;17.77;36.75
7376;BME280;3728;42.266;24.944;2023-02-22T08:20:54;99456.84;;;17.98;37.02
7376;BME280;3728;42.266;24.944;2023-02-22T08:23:24;99463.47;;;18.08;36.75
7376;BME280;3728;42.266;24.944;2023-02-22T08:25:53;99448.69;;;18.71;35.40
7376;BME280;3728;42.266;24.944;2023-02-22T08:28:23;99453.94;;;18.90;35.15
7376;BME280;3728;42.266;24.944;2023-02-22T08:30:51;99445.38;;;19.00;34.99
7376;BME280;3728;42.266;24.944;2023-02-22T08:33:19;99444.41;;;19.12;34.79
7376;BME280;3728;42.266;24.944;2023-02-22T08:35:48;99439.81;;;19.12;34.87
7376;BME280;3728;42.266;24.944;2023-02-22T08:38:29;99441.88;;;18.96;35.15
7376;BME280;3728;42.266;24.944;2023-02-22T08:40:59;99446.88;;;19.28;34.31
7376;BME280;3728;42.266;24.944;2023-02-22T08:43:27;99437.44;;;19.30;35.20
7376;BME280;3728;42.266;24.944;2023-02-22T08:45:54;99448.47;;;19.62;34.42
7376;BME280;3728;42.266;24.944;2023-02-22T08:48:23;99446.56;;;19.59;33.58
7376;BME280;3728;42.266;24.944;2023-02-22T08:50:50;99446.78;;;19.76;33.69
7376;BME280;3728;42.266;24.944;2023-02-22T08:53:18;99438.44;;;19.48;33.55
7376;BME280;3728;42.266;24.944;2023-02-22T08:55:46;99432.44;;;19.55;33.88
7376;BME280;3728;42.266;24.944;2023-02-22T08:58:13;99436.53;;;20.12;32.50
7376;BME280;3728;42.266;24.944;2023-02-22T09:00:41;99441.50;;;20.17;33.10
7376;BME280;3728;42.266;24.944;2023-02-22T09:03:12;99433.03;;;20.41;32.26
7376;BME280;3728;42.266;24.944;2023-02-22T09:05:45;99437.47;;;20.26;32.97
7376;BME280;3728;42.266;24.944;2023-02-22T09:08:14;99432.34;;;20.48;32.38
7376;BME280;3728;42.266;24.944;2023-02-22T09:10:42;99433.63;;;20.64;31.76
7376;BME280;3728;42.266;24.944;2023-02-22T09:13:11;99432.78;;;20.57;31.93
7376;BME280;3728;42.266;24.944;2023-02-22T09:15:38;99436.47;;;20.89;31.73
7376;BME280;3728;42.266;24.944;2023-02-22T09:18:07;99430.53;;;21.09;31.18
7376;BME280;3728;42.266;24.944;2023-02-22T09:20:37;99430.59;;;21.20;31.34
7376;BME280;3728;42.266;24.944;2023-02-22T09:23:06;99424.25;;;21.46;30.38
7376;BME280;3728;42.266;24.944;2023-02-22T09:25:37;99421.53;;;21.32;30.36
7376;BME280;3728;42.266;24.944;2023-02-22T09:28:06;99421.91;;;21.27;30.01
7376;BME280;3728;42.266;24.944;2023-02-22T09:30:35;99418.66;;;21.68;29.05
7376;BME280;3728;42.266;24.944;2023-02-22T09:33:09;99419.41;;;21.72;28.83
7376;BME280;3728;42.266;24.944;2023-02-22T09:35:40;99410.63;;;21.61;29.66
7376;BME280;3728;42.266;24.944;2023-02-22T09:38:17;99409.53;;;21.73;28.67
7376;BME280;3728;42.266;24.944;2023-02-22T09:40:51;99411.13;;;21.95;28.88
7376;BME280;3728;42.266;24.944;2023-02-22T09:57:03;99407.78;;;22.76;27.73
7376;BME280;3728;42.266;24.944;2023-02-22T09:59:39;99397.47;;;22.60;28.40
7376;BME280;3728;42.266;24.944;2023-02-22T10:02:28;99395.94;;;22.91;27.30
7376;BME280;3728;42.266;24.944;2023-02-22T10:05:09;99395.97;;;22.70;28.94
7376;BME280;3728;42.266;24.944;2023-02-22T10:07:53;99399.00;;;22.82;28.12
7376;BME280;3728;42.266;24.944;2023-02-22T10:10:23;99386.41;;;22.79;27.81
7376;BME280;3728;42.266;24.944;2023-02-22T10:16:08;99383.69;;;23.07;27.09
7376;BME280;3728;42.266;24.944;2023-02-22T10:18:42;99389.72;;;23.43;26.68
7376;BME280;3728;42.266;24.944;2023-02-22T10:21:38;99374.81;;;23.46;26.19
7376;BME280;3728;42.266;24.944;2023-02-22T10:26:57;99368.69;;;23.42;26.70
7376;BME280;3728;42.266;24.944;2023-02-22T10:29:49;99356.16;;;23.25;26.94
7376;BME280;3728;42.266;24.944;2023-02-22T10:32:33;99355.28;;;23.52;26.44
7376;BME280;3728;42.266;24.944;2023-02-22T10:35:24;99350.75;;;23.42;27.05
7376;BME280;3728;42.266;24.944;2023-02-22T10:38:18;99346.84;;;23.64;27.29
7376;BME280;3728;42.266;24.944;2023-02-22T10:40:56;99345.66;;;23.69;26.51
7376;BME280;3728;42.266;24.944;2023-02-22T10:43:27;99341.47;;;23.61;26.44
7376;BME280;3728;42.266;24.944;2023-02-22T10:46:00;99341.88;;;23.59;26.64
7376;BME280;3728;42.266;24.944;2023-02-22T10:48:31;99329.22;;;23.70;26.39
7376;BME280;3728;42.266;24.944;2023-02-22T10:51:08;99328.69;;;23.90;26.90
7376;BME280;3728;42.266;24.944;2023-02-22T10:53:37;99322.31;;;24.28;26.49
7376;BME280;3728;42.266;24.944;2023-02-22T10:56:15;99323.69;;;24.46;25.56
7376;BME280;3728;42.266;24.944;2023-02-22T10:58:55;99310.94;;;24.17;25.83
7376;BME280;3728;42.266;24.944;2023-02-22T11:07:18;99312.03;;;24.23;25.98
7376;BME280;3728;42.266;24.944;2023-02-22T11:09:57;99309.59;;;24.39;26.34
7376;BME280;3728;42.266;24.944;2023-02-22T11:12:39;99306.25;;;24.28;25.56
7376;BME280;3728;42.266;24.944;2023-02-22T11:17:46;99291.22;;;24.78;25.56
7376;BME280;3728;42.266;24.944;2023-02-22T11:20:29;99285.00;;;25.19;25.12
7376;BME280;3728;42.266;24.944;2023-02-22T11:23:02;99292.56;;;25.27;24.90
7376;BME280;3728;42.266;24.944;2023-02-22T11:25:36;99280.31;;;25.26;25.49
7376;BME280;3728;42.266;24.944;2023-02-22T11:28:14;99285.16;;;25.35;25.58
7376;BME280;3728;42.266;24.944;2023-02-22T11:31:16;99278.78;;;24.95;25.29
7376;BME280;3728;42.266;24.944;2023-02-22T11:34:01;99276.28;;;25.11;25.22
7376;BME280;3728;42.266;24.944;2023-02-22T11:36:47;99272.44;;;25.42;24.57
7376;BME280;3728;42.266;24.944;2023-02-22T11:39:24;99272.91;;;25.64;24.40
7376;BME280;3728;42.266;24.944;2023-02-22T11:41:55;99266.63;;;25.97;24.59
7376;BME280;3728;42.266;24.944;2023-02-22T11:44:29;99269.84;;;26.55;22.85
7376;BME280;3728;42.266;24.944;2023-02-22T11:47:00;99254.47;;;26.16;23.40
7376;BME280;3728;42.266;24.944;2023-02-22T11:49:37;99251.81;;;26.35;24.04
7376;BME280;3728;42.266;24.944;2023-02-22T11:52:23;99247.97;;;26.76;23.91
7376;BME280;3728;42.266;24.944;2023-02-22T11:58:34;99242.88;;;27.69;22.29
7376;BME280;3728;42.266;24.944;2023-02-22T12:18:20;99230.78;;;28.51;22.20
7376;BME280;3728;42.266;24.944;2023-02-22T12:21:06;99229.41;;;29.00;20.85
7376;BME280;3728;42.266;24.944;2023-02-22T12:26:49;99213.00;;;29.70;20.37
7376;BME280;3728;42.266;24.944;2023-02-22T12:32:40;99206.09;;;30.37;20.21
7376;BME280;3728;42.266;24.944;2023-02-22T12:35:26;99207.34;;;30.76;20.26
7376;BME280;3728;42.266;24.944;2023-02-22T12:38:18;99203.59;;;31.04;19.50
7376;BME280;3728;42.266;24.944;2023-02-22T12:43:52;99203.47;;;30.77;19.03
7376;BME280;3728;42.266;24.944;2023-02-22T12:46:45;99195.16;;;30.93;19.06
7376;BME280;3728;42.266;24.944;2023-02-22T12:55:07;99196.06;;;31.30;19.10
7376;BME280;3728;42.266;24.944;2023-02-22T13:00:44;99198.25;;;31.71;18.28
7376;BME280;3728;42.266;24.944;2023-02-22T13:03:35;99196.00;;;31.70;18.13
7376;BME280;3728;42.266;24.944;2023-02-22T13:15:02;99188.13;;;32.63;18.21
7376;BME280;3728;42.266;24.944;2023-02-22T13:27:00;99179.47;;;33.48;16.87
7376;BME280;3728;42.266;24.944;2023-02-22T13:29:53;99183.41;;;33.47;17.15
7376;BME280;3728;42.266;24.944;2023-02-22T13:47:51;99171.31;;;35.52;15.59
7376;BME280;3728;42.266;24.944;2023-02-22T13:56:15;99166.06;;;34.79;15.56
7376;BME280;3728;42.266;24.944;2023-02-22T13:58:59;99177.69;;;35.09;15.67
7376;BME280;3728;42.266;24.944;2023-02-22T14:01:45;99175.66;;;35.64;15.62
7376;BME280;3728;42.266;24.944;2023-02-22T14:06:56;99172.19;;;36.61;14.75
7376;BME280;3728;42.266;24.944;2023-02-22T14:18:02;99169.00;;;36.99;15.17
7376;BME280;3728;42.266;24.944;2023-02-22T14:20:40;99172.13;;;37.24;14.19
7376;BME280;3728;42.266;24.944;2023-02-22T14:31:57;99173.91;;;37.32;14.23
7376;BME280;3728;42.266;24.944;2023-02-22T14:34:42;99167.91;;;37.28;14.62
7376;BME280;3728;42.266;24.944;2023-02-22T14:39:59;99161.34;;;36.72;15.50
7376;BME280;3728;42.266;24.944;2023-02-22T14:42:48;99164.00;;;36.61;14.80
7376;BME280;3728;42.266;24.944;2023-02-22T14:45:23;99165.22;;;36.29;16.26
7376;BME280;3728;42.266;24.944;2023-02-22T14:48:25;99150.38;;;36.35;17.20
7376;BME280;3728;42.266;24.944;2023-02-22T14:51:06;99153.22;;;36.21;17.53
7376;BME280;3728;42.266;24.944;2023-02-22T14:53:52;99160.00;;;36.31;15.54
7376;BME280;3728;42.266;24.944;2023-02-22T14:56:51;99159.28;;;36.05;15.60
7376;BME280;3728;42.266;24.944;2023-02-22T14:59:53;99163.00;;;36.33;15.69
7376;BME280;3728;42.266;24.944;2023-02-22T15:02:37;99159.00;;;35.83;17.05
7376;BME280;3728;42.266;24.944;2023-02-22T15:05:12;99154.41;;;35.48;17.08
7376;BME280;3728;42.266;24.944;2023-02-22T15:07:52;99152.63;;;35.25;17.61
7376;BME280;3728;42.266;24.944;2023-02-22T15:10:28;99152.16;;;34.92;17.48
7376;BME280;3728;42.266;24.944;2023-02-22T15:13:14;99157.44;;;34.52;17.27
7376;BME280;3728;42.266;24.944;2023-02-22T15:15:48;99165.03;;;34.18;17.81
7376;BME280;3728;42.266;24.944;2023-02-22T15:18:34;99156.84;;;33.89;17.58
7376;BME280;3728;42.266;24.944;2023-02-22T15:21:08;99157.75;;;33.71;17.81
7376;BME280;3728;42.266;24.944;2023-02-22T15:24:05;99156.22;;;33.56;18.19
7376;BME280;3728;42.266;24.944;2023-02-22T15:26:38;99160.69;;;33.12;19.33
7376;BME280;3728;42.266;24.944;2023-02-22T15:29:34;99157.25;;;32.60;19.12
7376;BME280;3728;42.266;24.944;2023-02-22T15:32:33;99154.31;;;31.58;19.51
7376;BME280;3728;42.266;24.944;2023-02-22T15:35:26;99152.03;;;30.16;20.96
7376;BME280;3728;42.266;24.944;2023-02-22T15:38:18;99153.47;;;28.76;22.37
7376;BME280;3728;42.266;24.944;2023-02-22T15:41:04;99144.81;;;27.70;23.56
7376;BME280;3728;42.266;24.944;2023-02-22T15:43:35;99142.81;;;27.09;23.69
7376;BME280;3728;42.266;24.944;2023-02-22T15:46:04;99142.25;;;26.46;24.48
7376;BME280;3728;42.266;24.944;2023-02-22T15:48:36;99144.34;;;25.96;24.46
7376;BME280;3728;42.266;24.944;2023-02-22T15:51:08;99142.63;;;25.63;24.84
7376;BME280;3728;42.266;24.944;2023-02-22T15:53:47;99145.97;;;25.21;25.86
7376;BME280;3728;42.266;24.944;2023-02-22T15:56:25;99146.28;;;24.99;26.19
7376;BME280;3728;42.266;24.944;2023-02-22T15:59:20;99155.72;;;24.51;26.72
7376;BME280;3728;42.266;24.944;2023-02-22T16:01:50;99154.97;;;24.16;27.29
7376;BME280;3728;42.266;24.944;2023-02-22T16:04:25;99152.00;;;23.66;28.41
7376;BME280;3728;42.266;24.944;2023-02-22T16:07:06;99152.31;;;23.21;29.29
7376;BME280;3728;42.266;24.944;2023-02-22T16:09:47;99158.69;;;22.79;29.47
7376;BME280;3728;42.266;24.944;2023-02-22T16:14:46;99155.44;;;22.32;30.07
7376;BME280;3728;42.266;24.944;2023-02-22T16:17:34;99156.59;;;22.28;29.79
7376;BME280;3728;42.266;24.944;2023-02-22T16:22:45;99163.13;;;21.60;30.91
7376;BME280;3728;42.266;24.944;2023-02-22T16:27:55;99170.72;;;21.23;31.86
7376;BME280;3728;42.266;24.944;2023-02-22T16:30:28;99169.19;;;21.15;31.40
7376;BME280;3728;42.266;24.944;2023-02-22T16:33:03;99178.59;;;20.87;31.79